Terminal Aerodrome Forecast
Issued by NWS Sioux Falls, SD

Home | Current Version | Previous Version | Graphics & Text | Print | Product List | Glossary On
Versions: 1 2 3 4 5 6 7 8 9 10 11 12 13 14
067
FTUS43 KFSD 171120
TAFFSD
TAF
KFSD 171120Z 1712/1812 08009KT P6SM SCT150 SCT250
     FM180100 09015G21KT P6SM OVC100
     FM180500 07007KT P6SM OVC050
     FM180700 04007KT P6SM OVC035
     FM180900 04007KT 2SM -SN BR SCT007 OVC015=

USA.gov is the U.S. government's official web portal to all federal, state and local government web resources and services.